createdAt,value
2022-08-18T00:01:08.114Z,8.73
2022-08-18T00:03:56.581Z,8.60
2022-08-18T00:06:28.526Z,8.87
2022-08-18T00:08:58.040Z,8.67
2022-08-18T00:11:26.275Z,9.57
2022-08-18T00:13:54.428Z,11.43
2022-08-18T00:16:22.578Z,9.30
2022-08-18T00:18:52.131Z,9.47
2022-08-18T00:21:20.764Z,9.03
2022-08-18T00:23:49.001Z,9.20
2022-08-18T00:26:17.225Z,9.03
2022-08-18T00:28:45.442Z,10.80
2022-08-18T00:31:13.688Z,8.70
2022-08-18T00:33:43.757Z,9.10
2022-08-18T00:36:13.563Z,10.60
2022-08-18T00:38:41.900Z,9.73
2022-08-18T00:41:10.174Z,9.57
2022-08-18T00:43:43.364Z,8.37
2022-08-18T00:46:15.672Z,11.00
2022-08-18T00:48:48.733Z,9.43
2022-08-18T00:51:24.751Z,8.73
2022-08-18T00:53:58.498Z,9.70
2022-08-18T00:56:31.551Z,9.43
2022-08-18T00:59:04.297Z,9.13
2022-08-18T01:01:34.389Z,9.30
2022-08-18T01:04:09.388Z,9.00
2022-08-18T01:06:46.109Z,9.10
2022-08-18T01:09:14.548Z,9.27
2022-08-18T01:11:43.337Z,9.50
2022-08-18T01:14:15.951Z,8.93
2022-08-18T01:17:02.069Z,9.47
2022-08-18T01:19:48.499Z,9.03
2022-08-18T01:22:25.280Z,8.77
2022-08-18T01:25:16.004Z,9.50
2022-08-18T01:27:44.667Z,11.23
2022-08-18T01:30:16.144Z,9.10
2022-08-18T01:32:46.100Z,9.23
2022-08-18T01:35:17.591Z,9.10
2022-08-18T01:37:48.369Z,9.70
2022-08-18T01:41:11.078Z,10.17
2022-08-18T01:43:08.886Z,9.73
2022-08-18T01:45:43.512Z,10.43
2022-08-18T01:48:11.944Z,10.13
2022-08-18T01:50:41.814Z,10.63
2022-08-18T01:53:11.627Z,9.53
2022-08-18T01:55:45.440Z,9.93
2022-08-18T01:58:14.632Z,10.20
2022-08-18T02:00:43.126Z,12.17
2022-08-18T02:03:14.717Z,11.00
2022-08-18T02:05:49.699Z,11.30
2022-08-18T02:08:22.338Z,11.60
2022-08-18T02:11:03.664Z,10.47
2022-08-18T02:13:32.218Z,10.33
2022-08-18T02:16:00.830Z,10.67
2022-08-18T02:18:48.375Z,10.60
2022-08-18T02:21:22.993Z,10.77
2022-08-18T02:23:59.757Z,10.63
2022-08-18T02:26:29.426Z,10.87
2022-08-18T02:29:06.668Z,11.03
2022-08-18T02:31:37.155Z,11.13
2022-08-18T02:34:05.421Z,11.53
2022-08-18T02:36:33.999Z,11.50
2022-08-18T02:39:05.118Z,11.17
2022-08-18T02:41:38.160Z,10.70
2022-08-18T02:44:08.967Z,11.57
2022-08-18T02:46:48.179Z,10.40
2022-08-18T02:49:16.478Z,11.03
2022-08-18T02:51:49.039Z,11.27
2022-08-18T02:54:17.519Z,12.30
2022-08-18T02:56:47.990Z,11.50
2022-08-18T02:59:23.293Z,11.70
2022-08-18T03:01:53.927Z,11.30
2022-08-18T03:04:29.104Z,12.80
2022-08-18T03:07:34.237Z,11.93
2022-08-18T03:10:32.610Z,11.43
2022-08-18T03:12:54.762Z,12.27
2022-08-18T03:15:41.293Z,11.40
2022-08-18T03:18:24.176Z,12.10
2022-08-18T03:21:20.176Z,12.03
2022-08-18T03:24:00.342Z,12.40
2022-08-18T03:26:34.343Z,13.10
2022-08-18T03:29:04.349Z,13.17
2022-08-18T03:31:51.066Z,13.57
2022-08-18T03:34:46.766Z,14.47
2022-08-18T03:37:15.963Z,15.73
2022-08-18T03:39:44.520Z,15.47
2022-08-18T03:42:17.034Z,14.53
2022-08-18T03:44:46.864Z,14.90
2022-08-18T03:47:18.234Z,15.60
2022-08-18T03:49:46.381Z,13.87
2022-08-18T03:52:47.971Z,13.53
2022-08-18T03:55:20.752Z,14.27
2022-08-18T03:58:08.657Z,14.23
2022-08-18T04:00:49.628Z,14.97
2022-08-18T04:03:18.519Z,14.77
2022-08-18T04:05:47.821Z,16.67
2022-08-18T04:08:25.843Z,13.20
2022-08-18T04:10:54.533Z,14.43
2022-08-18T04:13:23.032Z,13.87
2022-08-18T04:15:54.253Z,14.60
2022-08-18T04:18:22.439Z,14.53
2022-08-18T04:21:03.478Z,13.93
2022-08-18T04:23:43.822Z,13.83
2022-08-18T04:26:19.438Z,15.80
2022-08-18T04:28:48.285Z,15.97
2022-08-18T04:31:23.728Z,14.43
2022-08-18T04:33:52.002Z,14.80
2022-08-18T04:36:23.438Z,13.60
2022-08-18T04:38:52.242Z,13.87
2022-08-18T04:41:27.242Z,14.10
2022-08-18T04:43:57.806Z,15.35
2022-08-18T04:46:28.492Z,14.13
2022-08-18T04:48:59.858Z,16.08
2022-08-18T04:52:37.140Z,15.32
2022-08-18T04:54:18.076Z,18.52
2022-08-18T04:56:46.423Z,18.17
2022-08-18T04:59:15.858Z,17.58
2022-08-18T05:01:48.289Z,17.20
2022-08-18T05:04:28.892Z,16.92
2022-08-18T05:06:57.397Z,15.90
2022-08-18T05:09:25.436Z,18.08
2022-08-18T05:11:59.657Z,20.55
2022-08-18T05:14:30.677Z,17.40
2022-08-18T05:17:01.808Z,20.15
2022-08-18T05:19:44.006Z,21.75
2022-08-18T05:22:28.682Z,21.38
2022-08-18T05:25:06.057Z,24.85
2022-08-18T05:27:40.587Z,17.73
2022-08-18T05:33:03.668Z,21.08
2022-08-18T05:35:48.142Z,19.98
2022-08-18T05:38:31.229Z,20.17
2022-08-18T05:41:13.683Z,18.67
2022-08-18T05:43:52.044Z,17.23
2022-08-18T05:46:26.060Z,15.52
2022-08-18T05:48:55.687Z,18.45
2022-08-18T05:51:30.226Z,17.17
2022-08-18T05:54:16.561Z,14.65
2022-08-18T05:56:49.454Z,14.20
2022-08-18T05:59:25.893Z,11.82
2022-08-18T06:02:00.805Z,12.23
2022-08-18T06:04:42.795Z,16.08
2022-08-18T06:07:15.072Z,13.55
2022-08-18T06:09:49.181Z,12.75
2022-08-18T06:12:25.689Z,12.48
2022-08-18T06:15:06.460Z,13.57
2022-08-18T06:18:13.921Z,15.13
2022-08-18T06:21:10.242Z,12.07
2022-08-18T06:23:47.332Z,11.65
2022-08-18T06:26:21.541Z,13.18
2022-08-18T06:29:13.561Z,12.10
2022-08-18T06:31:48.505Z,12.20
2022-08-18T06:34:27.002Z,12.07
2022-08-18T06:37:04.884Z,12.00
2022-08-18T06:39:37.128Z,12.25
2022-08-18T06:42:06.049Z,16.13
2022-08-18T06:44:40.502Z,13.38
2022-08-18T06:47:16.256Z,14.82
2022-08-18T06:49:49.315Z,12.65
2022-08-18T06:52:31.386Z,11.95
2022-08-18T06:55:02.328Z,11.35
2022-08-18T06:57:34.761Z,12.85
2022-08-18T07:00:09.784Z,13.52
2022-08-18T07:02:50.696Z,17.83
2022-08-18T07:05:22.224Z,16.88
2022-08-18T07:08:10.575Z,12.32
2022-08-18T07:10:41.798Z,12.10
2022-08-18T07:13:17.750Z,12.18
2022-08-18T07:15:46.171Z,12.65
2022-08-18T07:18:17.257Z,14.63
2022-08-18T07:20:47.259Z,13.88
2022-08-18T07:23:39.459Z,16.88
2022-08-18T07:26:12.042Z,11.60
2022-08-18T07:28:46.841Z,15.35
2022-08-18T07:31:25.999Z,10.38
2022-08-18T07:33:59.114Z,12.23
2022-08-18T07:36:33.535Z,12.90
2022-08-18T07:39:11.347Z,14.32
2022-08-18T07:41:44.083Z,10.57
2022-08-18T07:44:21.400Z,11.73
2022-08-18T07:46:58.828Z,10.52
2022-08-18T07:49:33.456Z,10.73
2022-08-18T07:52:09.012Z,11.52
2022-08-18T07:55:06.464Z,9.48
2022-08-18T07:57:45.944Z,9.43
2022-08-18T08:00:41.015Z,12.73
2022-08-18T08:03:27.155Z,12.43
2022-08-18T08:05:59.952Z,9.27
2022-08-18T08:08:41.009Z,9.13
2022-08-18T08:11:27.796Z,9.20
2022-08-18T08:14:09.199Z,10.65
2022-08-18T08:16:47.234Z,8.70
2022-08-18T08:19:58.936Z,8.38
2022-08-18T08:22:31.937Z,8.65
2022-08-18T08:25:22.398Z,8.48
2022-08-18T08:28:08.297Z,8.25
2022-08-18T08:30:44.265Z,7.85
2022-08-18T08:33:26.389Z,8.73
2022-08-18T08:36:00.823Z,8.80
2022-08-18T08:38:44.490Z,9.65
2022-08-18T08:41:20.943Z,10.63
2022-08-18T08:44:03.883Z,9.20
2022-08-18T08:46:40.754Z,9.07
2022-08-18T08:49:18.508Z,12.00
2022-08-18T08:51:56.794Z,9.23
2022-08-18T08:54:31.871Z,9.85
2022-08-18T08:57:02.502Z,9.63
2022-08-18T08:59:31.912Z,8.75
2022-08-18T09:02:32.256Z,10.52
2022-08-18T09:05:10.635Z,7.60
2022-08-18T09:07:55.100Z,10.77
2022-08-18T09:10:40.919Z,8.38
2022-08-18T09:13:29.400Z,10.60
2022-08-18T09:16:16.956Z,8.05
2022-08-18T09:18:55.307Z,7.70
2022-08-18T09:21:33.529Z,7.40
2022-08-18T09:24:10.929Z,7.43
2022-08-18T09:26:51.778Z,6.97
2022-08-18T09:29:24.312Z,7.70
2022-08-18T09:32:25.993Z,7.80
2022-08-18T09:35:09.224Z,7.75
2022-08-18T09:37:48.749Z,8.63
2022-08-18T09:41:01.688Z,7.80
2022-08-18T09:43:36.795Z,7.03
2022-08-18T09:46:07.038Z,9.13
2022-08-18T09:48:43.310Z,7.43
2022-08-18T09:51:40.047Z,8.00
2022-08-18T09:54:21.354Z,7.43
2022-08-18T09:57:08.617Z,6.90
2022-08-18T10:00:24.306Z,7.07
2022-08-18T10:03:13.844Z,9.77
2022-08-18T10:05:57.544Z,9.75
2022-08-18T10:08:55.401Z,7.80
2022-08-18T10:11:50.978Z,7.80
2022-08-18T10:14:42.196Z,7.53
2022-08-18T10:17:35.378Z,7.65
2022-08-18T10:20:26.101Z,6.57
2022-08-18T10:22:56.582Z,7.45
2022-08-18T10:25:37.540Z,8.48
2022-08-18T10:28:07.847Z,7.40
2022-08-18T10:31:12.173Z,7.53
2022-08-18T10:34:16.067Z,8.13
2022-08-18T10:36:53.126Z,7.13
2022-08-18T10:39:23.269Z,6.80
2022-08-18T10:42:06.299Z,7.28
2022-08-18T10:44:41.979Z,7.07
2022-08-18T10:47:20.582Z,7.57
2022-08-18T10:49:53.772Z,6.47
2022-08-18T10:52:41.700Z,6.82
2022-08-18T10:55:50.327Z,7.50
2022-08-18T10:58:45.958Z,6.72
2022-08-18T11:01:39.736Z,7.32
2022-08-18T11:04:32.813Z,6.40
2022-08-18T11:07:09.973Z,6.70
2022-08-18T11:09:42.189Z,9.82
2022-08-18T11:12:52.218Z,7.88
2022-08-18T11:15:28.987Z,7.43
2022-08-18T11:18:17.737Z,7.22
2022-08-18T11:20:47.524Z,6.82
2022-08-18T11:23:17.566Z,8.00
2022-08-18T11:25:46.132Z,7.88
2022-08-18T11:28:18.662Z,8.02
2022-08-18T11:30:51.619Z,6.57
2022-08-18T11:33:22.833Z,6.38
2022-08-18T11:35:57.737Z,7.00
2022-08-18T11:38:27.136Z,6.85
2022-08-18T11:41:47.933Z,8.45
2022-08-18T11:44:21.190Z,7.10
2022-08-18T11:46:56.152Z,6.15
2022-08-18T11:49:33.600Z,6.15
2022-08-18T11:52:05.777Z,7.60
2022-08-18T11:54:50.689Z,7.78
2022-08-18T12:00:57.216Z,7.03
2022-08-18T12:03:38.060Z,6.38
2022-08-18T12:06:19.103Z,6.32
2022-08-18T12:08:57.562Z,6.50
2022-08-18T12:11:29.756Z,7.38
2022-08-18T12:14:29.869Z,6.32
2022-08-18T12:19:41.229Z,6.40
2022-08-18T12:22:17.811Z,6.30
2022-08-18T12:24:48.374Z,9.07
2022-08-18T12:27:21.171Z,8.73
2022-08-18T12:29:50.541Z,7.55
2022-08-18T12:32:50.230Z,7.45
2022-08-18T12:35:11.626Z,6.20
2022-08-18T12:40:33.111Z,6.95
2022-08-18T12:43:01.073Z,7.00
2022-08-18T12:45:31.155Z,6.05
2022-08-18T12:53:59.371Z,7.03
2022-08-18T12:56:30.998Z,6.57
2022-08-18T12:59:04.127Z,6.63
2022-08-18T13:01:33.914Z,7.47
2022-08-18T13:04:11.387Z,6.30
2022-08-18T13:06:59.060Z,7.30
2022-08-18T13:09:35.305Z,6.80
2022-08-18T13:12:19.578Z,7.47
2022-08-18T13:14:48.751Z,6.20
2022-08-18T13:17:32.165Z,6.28
2022-08-18T13:20:01.422Z,6.85
2022-08-18T13:22:32.884Z,6.57
2022-08-18T13:25:01.940Z,6.80
2022-08-18T13:27:35.200Z,6.28
2022-08-18T13:30:16.701Z,7.57
2022-08-18T13:32:58.630Z,6.28
2022-08-18T13:35:29.952Z,7.57
2022-08-18T13:38:14.160Z,6.50
2022-08-18T13:40:47.060Z,6.88
2022-08-18T13:43:17.421Z,9.20
2022-08-18T13:45:53.524Z,6.68
2022-08-18T13:48:24.310Z,9.35
2022-08-18T13:50:55.655Z,6.75
2022-08-18T13:53:27.425Z,6.95
2022-08-18T13:55:58.127Z,6.25
2022-08-18T13:58:26.787Z,6.88
2022-08-18T14:01:16.023Z,6.03
2022-08-18T14:03:47.869Z,5.78
2022-08-18T14:06:21.988Z,7.20
2022-08-18T14:08:53.962Z,8.68
2022-08-18T14:11:27.610Z,8.27
2022-08-18T14:14:01.131Z,6.50
2022-08-18T14:16:30.943Z,6.65
2022-08-18T14:19:13.066Z,8.95
2022-08-18T14:22:03.717Z,8.15
2022-08-18T14:24:51.068Z,8.10
2022-08-18T14:27:20.114Z,6.65
2022-08-18T14:29:49.739Z,6.90
2022-08-18T14:32:29.394Z,6.65
2022-08-18T14:35:00.868Z,6.50
2022-08-18T14:37:47.167Z,6.82
2022-08-18T14:40:20.277Z,6.80
2022-08-18T14:42:55.015Z,8.80
2022-08-18T14:45:31.220Z,8.88
2022-08-18T14:48:06.651Z,7.82
2022-08-18T14:50:35.387Z,7.47
2022-08-18T14:53:03.993Z,6.80
2022-08-18T14:55:34.132Z,8.32
2022-08-18T14:58:02.360Z,6.88
2022-08-18T15:00:30.420Z,6.75
2022-08-18T15:02:59.453Z,6.50
2022-08-18T15:05:33.906Z,10.57
2022-08-18T15:08:03.922Z,7.18
2022-08-18T15:10:34.020Z,7.72
2022-08-18T15:13:02.119Z,7.25
2022-08-18T15:15:51.037Z,10.15
2022-08-18T15:18:22.612Z,7.82
2022-08-18T15:21:10.127Z,7.63
2022-08-18T15:23:57.478Z,7.15
2022-08-18T15:26:27.949Z,7.15
2022-08-18T15:29:00.202Z,7.55
2022-08-18T15:31:51.380Z,7.82
2022-08-18T15:34:22.701Z,7.32
2022-08-18T15:36:57.225Z,7.13
2022-08-18T15:39:37.512Z,7.40
2022-08-18T15:42:13.424Z,7.57
2022-08-18T15:44:41.784Z,7.32
2022-08-18T15:47:12.847Z,7.90
2022-08-18T15:49:49.037Z,8.23
2022-08-18T15:52:19.893Z,7.38
2022-08-18T15:54:50.974Z,12.77
2022-08-18T15:57:39.782Z,33.15
2022-08-18T16:00:12.088Z,7.90
2022-08-18T16:02:44.800Z,7.13
2022-08-18T16:05:17.052Z,7.32
2022-08-18T16:07:46.093Z,7.65
2022-08-18T16:10:14.759Z,8.02
2022-08-18T16:12:46.311Z,7.15
2022-08-18T16:15:15.603Z,7.13
2022-08-18T16:17:47.908Z,7.85
2022-08-18T16:20:16.432Z,7.55
2022-08-18T16:22:44.694Z,7.25
2022-08-18T16:25:12.888Z,8.20
2022-08-18T16:27:42.941Z,7.85
2022-08-18T16:30:15.633Z,8.98
2022-08-18T16:32:44.609Z,11.85
2022-08-18T16:35:12.864Z,7.55
2022-08-18T16:37:41.221Z,8.30
2022-08-18T16:40:10.310Z,7.70
2022-08-18T16:42:38.461Z,7.10
2022-08-18T16:45:08.473Z,7.32
2022-08-18T16:47:39.143Z,7.63
2022-08-18T16:50:09.127Z,9.75
2022-08-18T16:52:38.239Z,7.32
2022-08-18T16:55:08.621Z,7.15
2022-08-18T16:57:57.012Z,7.72
2022-08-18T17:00:43.306Z,6.88
2022-08-18T17:03:30.193Z,7.43
2022-08-18T17:06:02.901Z,7.63
2022-08-18T17:08:34.293Z,7.15
2022-08-18T17:11:02.612Z,7.00
2022-08-18T17:13:31.435Z,7.40
2022-08-18T17:16:00.554Z,7.22
2022-08-18T17:18:30.602Z,11.48
2022-08-18T17:21:03.119Z,7.90
2022-08-18T17:23:31.654Z,8.10
2022-08-18T17:26:00.667Z,7.60
2022-08-18T17:28:39.642Z,7.07
2022-08-18T17:31:19.552Z,6.55
2022-08-18T17:33:49.303Z,6.88
2022-08-18T17:36:24.225Z,7.03
2022-08-18T17:38:58.614Z,7.25
2022-08-18T17:41:27.873Z,7.82
2022-08-18T17:44:00.841Z,6.78
2022-08-18T17:46:39.427Z,8.88
2022-08-18T17:49:14.439Z,6.47
2022-08-18T17:51:46.129Z,8.32
2022-08-18T17:54:32.317Z,7.53
2022-08-18T17:57:08.704Z,7.60
2022-08-18T17:59:45.851Z,7.55
2022-08-18T18:02:29.851Z,7.85
2022-08-18T18:05:01.575Z,7.97
2022-08-18T18:07:33.740Z,10.88
2022-08-18T18:10:06.483Z,10.02
2022-08-18T18:12:36.733Z,8.60
2022-08-18T18:15:09.790Z,8.57
2022-08-18T18:17:40.191Z,9.73
2022-08-18T18:20:25.245Z,10.77
2022-08-18T18:22:54.154Z,8.77
2022-08-18T18:25:34.593Z,10.23
2022-08-18T18:28:04.175Z,9.10
2022-08-18T18:30:32.880Z,10.85
2022-08-18T18:33:03.226Z,13.32
2022-08-18T18:35:50.019Z,8.75
2022-08-18T18:38:28.410Z,10.13
2022-08-18T18:40:59.050Z,11.73
2022-08-18T18:43:36.016Z,9.80
2022-08-18T18:46:16.650Z,13.80
2022-08-18T18:49:02.718Z,12.95
2022-08-18T18:51:39.596Z,10.38
2022-08-18T18:54:19.551Z,10.27
2022-08-18T18:56:53.101Z,8.80
2022-08-18T18:59:35.612Z,9.07
2022-08-18T19:02:33.141Z,10.38
2022-08-18T19:05:17.771Z,11.60
2022-08-18T19:08:00.068Z,11.35
2022-08-18T19:10:37.051Z,10.73
2022-08-18T19:13:12.688Z,10.20
2022-08-18T19:16:23.201Z,10.82
2022-08-18T19:19:36.279Z,11.20
2022-08-18T19:22:03.800Z,15.35
2022-08-18T19:24:40.567Z,10.57
2022-08-18T19:27:17.751Z,10.07
2022-08-18T19:29:55.054Z,10.65
2022-08-18T19:32:38.011Z,13.60
2022-08-18T19:35:12.088Z,14.00
2022-08-18T19:37:54.502Z,11.93
2022-08-18T19:40:30.581Z,11.90
2022-08-18T19:43:04.732Z,11.40
2022-08-18T19:45:37.634Z,11.43
2022-08-18T19:48:17.631Z,10.77
2022-08-18T19:50:50.502Z,9.63
2022-08-18T19:54:01.414Z,10.52
2022-08-18T19:56:47.948Z,11.13
2022-08-18T19:59:35.030Z,9.48
2022-08-18T20:02:22.578Z,9.45
2022-08-18T20:05:04.481Z,9.80
2022-08-18T20:07:55.246Z,9.15
2022-08-18T20:10:54.022Z,9.45
2022-08-18T20:13:32.947Z,9.07
2022-08-18T20:16:28.669Z,10.75
2022-08-18T20:19:44.384Z,9.32
2022-08-18T20:22:30.515Z,8.48
2022-08-18T20:25:05.878Z,9.50
2022-08-18T20:27:39.546Z,11.77
2022-08-18T20:30:35.083Z,9.25
2022-08-18T20:33:30.703Z,10.63
2022-08-18T20:36:13.088Z,9.65
2022-08-18T20:38:45.610Z,11.52
2022-08-18T20:41:47.292Z,9.65
2022-08-18T20:44:29.467Z,9.93
2022-08-18T20:47:09.777Z,9.60
2022-08-18T20:49:48.633Z,12.23
2022-08-18T20:52:29.638Z,8.80
2022-08-18T20:55:11.603Z,9.05
2022-08-18T20:57:41.604Z,8.68
2022-08-18T21:00:14.717Z,9.38
2022-08-18T21:02:50.123Z,9.43
2022-08-18T21:05:27.638Z,10.82
2022-08-18T21:08:07.528Z,9.35
2022-08-18T21:10:35.779Z,11.55
2022-08-18T21:13:08.232Z,12.23
2022-08-18T21:15:39.261Z,8.23
2022-08-18T21:18:19.303Z,9.48
2022-08-18T21:20:48.865Z,9.48
2022-08-18T21:23:24.676Z,8.75
2022-08-18T21:25:55.924Z,9.98
2022-08-18T21:28:28.832Z,9.45
2022-08-18T21:31:43.075Z,9.43
2022-08-18T21:33:54.317Z,9.95
2022-08-18T21:36:25.612Z,8.77
2022-08-18T21:39:03.422Z,9.25
2022-08-18T21:41:40.529Z,8.48
2022-08-18T21:44:14.836Z,8.52
2022-08-18T21:46:45.006Z,9.52
2022-08-18T21:49:24.750Z,8.52
2022-08-18T21:52:01.738Z,8.80
2022-08-18T21:54:34.592Z,10.07
2022-08-18T21:57:21.550Z,9.15
2022-08-18T22:00:25.411Z,9.82
2022-08-18T22:03:11.641Z,9.50
2022-08-18T22:05:57.812Z,9.07
2022-08-18T22:08:29.615Z,9.55
2022-08-18T22:11:59.421Z,9.80
2022-08-18T22:14:32.951Z,10.20
2022-08-18T22:17:31.507Z,10.02
2022-08-18T22:20:34.032Z,12.88
2022-08-18T22:23:25.444Z,10.95
2022-08-18T22:25:54.237Z,8.98
2022-08-18T22:28:24.242Z,9.73
2022-08-18T22:30:55.655Z,9.35
2022-08-18T22:33:23.986Z,13.25
2022-08-18T22:35:55.378Z,10.38
2022-08-18T22:38:26.433Z,10.00
2022-08-18T22:40:54.617Z,9.55
2022-08-18T22:43:23.358Z,9.23
2022-08-18T22:45:51.635Z,11.27
2022-08-18T22:48:20.142Z,10.52
2022-08-18T22:50:48.194Z,12.57
2022-08-18T22:53:18.577Z,11.07
2022-08-18T22:55:49.392Z,10.00
2022-08-18T22:58:27.971Z,9.73
2022-08-18T23:01:05.515Z,11.23
2022-08-18T23:03:34.500Z,10.15
2022-08-18T23:06:11.691Z,16.05
2022-08-18T23:08:54.755Z,28.88
2022-08-18T23:11:26.058Z,26.55
2022-08-18T23:13:54.253Z,15.43
2022-08-18T23:16:31.999Z,14.70
2022-08-18T23:19:02.089Z,14.80
2022-08-18T23:21:34.980Z,14.52
2022-08-18T23:24:05.364Z,15.50
2022-08-18T23:26:35.208Z,22.08
2022-08-18T23:29:03.749Z,24.73
2022-08-18T23:31:31.922Z,21.73
2022-08-18T23:34:02.078Z,21.77
2022-08-18T23:36:31.280Z,23.80
2022-08-18T23:38:59.890Z,20.48
2022-08-18T23:41:28.164Z,20.23
2022-08-18T23:43:59.138Z,33.05
2022-08-18T23:46:28.987Z,27.35
2022-08-18T23:48:59.870Z,19.98
2022-08-18T23:51:30.405Z,15.90
2022-08-18T23:54:00.906Z,12.25
2022-08-18T23:56:29.511Z,13.32
2022-08-18T23:59:00.317Z,18.40
